KBAF/BAF METAR and TAF weather

Enter ICAO airport designator
Station Type Date Time Source
KBAF METAR 2022/11/30 16:53 UTC NOAA

KBAF 301653Z 00000KT 2 1/2SM -RA BR OVC008 01/00 A2989 RMK AO2 RAB10 PRESFR SLP127 P0001 T00110000


Station Type Date Time Source
KBAF Decoded METAR 2022/11/30 16:53 UTC NOAA

WESTFIELD BARNES MUNICIPAL, MA, United States (KBAF) 42-10N 072-43W 83M
Nov 30, 2022 - 11:53 AM EST / 2022.11.30 1653 UTC
Wind: Calm:0
Visibility: 2 1/2 mile(s):0
Sky conditions: overcast
Weather: light rain; mist
Precipitation last hour: 0.01 inches
Temperature: 34.0 F (1.1 C)
Dew Point: 32.0 F (0.0 C)
Relative Humidity: 92%
Pressure (altimeter): 29.89 in. Hg (1012 hPa)
Pressure tendency: falling rapidly
ob: KBAF 301653Z 00000KT 2 1/2SM -RA BR OVC008 01/00 A2989 RMK AO2 RAB10 PRESFR SLP127 P0001 T00110000
cycle: 17

Station Type Date Time Source
KBAF TAF 2022/11/30 12:30 UTC NOAA

TAF KBAF 301127Z 3012/0112 02003KT P6SM OVC020
FM301600 09007KT P6SM OVC015 WS020/16040KT
FM301900 16016G33KT 2SM RA BR OVC010
FM302100 18020G42KT 1SM +RA BR OVC010
FM302300 25016G34KT 3SM BR VCSH OVC010
FM010200 29014G28KT P6SM SCT150

Example: see airport list